Eller, North Carolina
Current Conditions -  °F | °C
As of 3:54 AM on Friday 24 Oct 2014 (Local Time) from KINT Reporting Station
Clear Clear  
Wind Chill: 45°   Ceiling: Unl
Heat Index: 47°   Visibility: 10mi
Dew Point: 39°   Wind: 5mph
Humidity: 74%   Direction: 300°WNW
Pressure: 30.05"   Gusts: NA
Location:  36.0182°N, 80.183°W
Report Text: KINT 240754Z AUTO 30004KT 10SM CLR 08/04 A3005 RMK AO2 SLP172 T00830039
Loading
Personal Weather Stations






























Interactive Weather Map
Tropical Storm Tracking
New forecast layout! Learn more

10-Day Weather Forecast

Advertisements
Track Severe Weather on mobile